sensor_id;sensor_type;location;lat;lon;timestamp;P1;durP1;ratioP1;P2;durP2;ratioP2
79143;SDS011;68551;47.484;19.092;2023-04-25T00:01:28;2.00;;;1.50;;
79143;SDS011;68551;47.484;19.092;2023-04-25T00:04:31;2.03;;;1.60;;
79143;SDS011;68551;47.484;19.092;2023-04-25T00:07:40;2.20;;;1.70;;
79143;SDS011;68551;47.484;19.092;2023-04-25T00:10:47;1.88;;;1.65;;
79143;SDS011;68551;47.484;19.092;2023-04-25T00:13:50;2.25;;;1.70;;
79143;SDS011;68551;47.484;19.092;2023-04-25T00:16:56;2.75;;;1.92;;
79143;SDS011;68551;47.484;19.092;2023-04-25T00:20:01;1.52;;;1.38;;
79143;SDS011;68551;47.484;19.092;2023-04-25T00:23:07;2.00;;;1.60;;
79143;SDS011;68551;47.484;19.092;2023-04-25T00:26:10;2.42;;;1.45;;
79143;SDS011;68551;47.484;19.092;2023-04-25T00:29:14;2.67;;;1.90;;
79143;SDS011;68551;47.484;19.092;2023-04-25T00:32:17;1.83;;;1.63;;
79143;SDS011;68551;47.484;19.092;2023-04-25T00:35:19;2.17;;;1.63;;
79143;SDS011;68551;47.484;19.092;2023-04-25T00:38:24;2.60;;;1.98;;
79143;SDS011;68551;47.484;19.092;2023-04-25T00:41:26;3.65;;;2.10;;
79143;SDS011;68551;47.484;19.092;2023-04-25T00:44:29;2.38;;;2.08;;
79143;SDS011;68551;47.484;19.092;2023-04-25T00:47:36;2.58;;;1.88;;
79143;SDS011;68551;47.484;19.092;2023-04-25T00:50:39;2.33;;;2.05;;
79143;SDS011;68551;47.484;19.092;2023-04-25T00:53:48;2.42;;;1.80;;
79143;SDS011;68551;47.484;19.092;2023-04-25T00:56:56;2.17;;;1.67;;
79143;SDS011;68551;47.484;19.092;2023-04-25T00:59:58;3.55;;;2.22;;
79143;SDS011;68551;47.484;19.092;2023-04-25T01:03:04;2.60;;;1.90;;
79143;SDS011;68551;47.484;19.092;2023-04-25T01:06:07;2.92;;;1.98;;
79143;SDS011;68551;47.484;19.092;2023-04-25T01:09:11;2.92;;;2.03;;
79143;SDS011;68551;47.484;19.092;2023-04-25T01:12:16;2.90;;;2.35;;
79143;SDS011;68551;47.484;19.092;2023-04-25T01:15:18;2.33;;;2.00;;
79143;SDS011;68551;47.484;19.092;2023-04-25T01:18:23;3.03;;;2.22;;
79143;SDS011;68551;47.484;19.092;2023-04-25T01:21:28;2.38;;;2.10;;
79143;SDS011;68551;47.484;19.092;2023-04-25T01:24:35;2.92;;;2.25;;
79143;SDS011;68551;47.484;19.092;2023-04-25T01:27:38;3.03;;;2.15;;
79143;SDS011;68551;47.484;19.092;2023-04-25T01:30:43;3.75;;;2.17;;
79143;SDS011;68551;47.484;19.092;2023-04-25T01:33:47;3.72;;;2.47;;
79143;SDS011;68551;47.484;19.092;2023-04-25T01:36:52;2.45;;;2.17;;
79143;SDS011;68551;47.484;19.092;2023-04-25T01:39:55;5.65;;;2.40;;
79143;SDS011;68551;47.484;19.092;2023-04-25T01:42:58;3.72;;;2.65;;
79143;SDS011;68551;47.484;19.092;2023-04-25T01:46:00;4.07;;;2.80;;
79143;SDS011;68551;47.484;19.092;2023-04-25T01:49:07;3.00;;;2.60;;
79143;SDS011;68551;47.484;19.092;2023-04-25T01:52:14;3.00;;;2.17;;
79143;SDS011;68551;47.484;19.092;2023-04-25T01:55:19;3.20;;;2.22;;
79143;SDS011;68551;47.484;19.092;2023-04-25T01:58:32;2.90;;;2.22;;
79143;SDS011;68551;47.484;19.092;2023-04-25T02:01:37;2.95;;;2.30;;
79143;SDS011;68551;47.484;19.092;2023-04-25T02:04:59;2.95;;;2.20;;
79143;SDS011;68551;47.484;19.092;2023-04-25T02:08:03;3.63;;;2.63;;
79143;SDS011;68551;47.484;19.092;2023-04-25T02:11:12;2.63;;;2.17;;
79143;SDS011;68551;47.484;19.092;2023-04-25T02:14:24;3.05;;;2.75;;
79143;SDS011;68551;47.484;19.092;2023-04-25T02:17:53;4.78;;;2.55;;
79143;SDS011;68551;47.484;19.092;2023-04-25T02:20:55;3.15;;;2.17;;
79143;SDS011;68551;47.484;19.092;2023-04-25T02:24:00;4.97;;;2.50;;
79143;SDS011;68551;47.484;19.092;2023-04-25T02:27:03;2.72;;;2.30;;
79143;SDS011;68551;47.484;19.092;2023-04-25T02:30:09;2.58;;;1.92;;
79143;SDS011;68551;47.484;19.092;2023-04-25T02:33:17;2.95;;;2.38;;
79143;SDS011;68551;47.484;19.092;2023-04-25T02:36:19;3.88;;;2.63;;
79143;SDS011;68551;47.484;19.092;2023-04-25T02:39:24;3.25;;;2.40;;
79143;SDS011;68551;47.484;19.092;2023-04-25T02:42:29;3.15;;;2.20;;
79143;SDS011;68551;47.484;19.092;2023-04-25T02:45:32;2.95;;;2.58;;
79143;SDS011;68551;47.484;19.092;2023-04-25T02:48:39;3.05;;;2.22;;
79143;SDS011;68551;47.484;19.092;2023-04-25T02:51:41;3.13;;;2.05;;
79143;SDS011;68551;47.484;19.092;2023-04-25T02:54:43;2.50;;;2.08;;
79143;SDS011;68551;47.484;19.092;2023-04-25T02:57:46;3.00;;;2.15;;
79143;SDS011;68551;47.484;19.092;2023-04-25T03:00:56;2.75;;;2.20;;
79143;SDS011;68551;47.484;19.092;2023-04-25T03:04:00;2.17;;;1.98;;
79143;SDS011;68551;47.484;19.092;2023-04-25T03:07:02;2.58;;;2.20;;
79143;SDS011;68551;47.484;19.092;2023-04-25T03:10:09;3.13;;;2.10;;
79143;SDS011;68551;47.484;19.092;2023-04-25T03:13:11;4.05;;;2.35;;
79143;SDS011;68551;47.484;19.092;2023-04-25T03:16:18;5.80;;;2.22;;
79143;SDS011;68551;47.484;19.092;2023-04-25T03:19:24;3.63;;;2.50;;
79143;SDS011;68551;47.484;19.092;2023-04-25T03:22:26;2.50;;;2.08;;
79143;SDS011;68551;47.484;19.092;2023-04-25T03:25:31;4.00;;;2.50;;
79143;SDS011;68551;47.484;19.092;2023-04-25T03:28:33;4.40;;;2.33;;
79143;SDS011;68551;47.484;19.092;2023-04-25T03:31:38;3.38;;;2.60;;
79143;SDS011;68551;47.484;19.092;2023-04-25T03:34:44;2.72;;;2.38;;
79143;SDS011;68551;47.484;19.092;2023-04-25T03:37:46;3.45;;;2.47;;
79143;SDS011;68551;47.484;19.092;2023-04-25T03:40:56;2.63;;;2.33;;
79143;SDS011;68551;47.484;19.092;2023-04-25T03:44:08;2.88;;;2.40;;
79143;SDS011;68551;47.484;19.092;2023-04-25T03:47:14;3.60;;;2.38;;
79143;SDS011;68551;47.484;19.092;2023-04-25T03:50:22;3.83;;;2.05;;
79143;SDS011;68551;47.484;19.092;2023-04-25T03:53:25;2.97;;;2.10;;
79143;SDS011;68551;47.484;19.092;2023-04-25T03:56:50;3.45;;;2.30;;
79143;SDS011;68551;47.484;19.092;2023-04-25T03:59:56;3.10;;;2.10;;
79143;SDS011;68551;47.484;19.092;2023-04-25T04:02:59;3.70;;;2.28;;
79143;SDS011;68551;47.484;19.092;2023-04-25T04:06:03;2.70;;;2.20;;
79143;SDS011;68551;47.484;19.092;2023-04-25T04:09:10;3.42;;;2.28;;
79143;SDS011;68551;47.484;19.092;2023-04-25T04:12:17;2.90;;;2.13;;
79143;SDS011;68551;47.484;19.092;2023-04-25T04:15:21;3.47;;;2.35;;
79143;SDS011;68551;47.484;19.092;2023-04-25T04:18:24;3.40;;;2.70;;
79143;SDS011;68551;47.484;19.092;2023-04-25T04:21:30;3.05;;;2.35;;
79143;SDS011;68551;47.484;19.092;2023-04-25T04:24:34;3.53;;;2.58;;
79143;SDS011;68551;47.484;19.092;2023-04-25T04:27:40;2.53;;;2.00;;
79143;SDS011;68551;47.484;19.092;2023-04-25T04:30:59;3.85;;;2.67;;
79143;SDS011;68551;47.484;19.092;2023-04-25T04:34:03;4.00;;;2.35;;
79143;SDS011;68551;47.484;19.092;2023-04-25T04:37:08;2.67;;;2.35;;
79143;SDS011;68551;47.484;19.092;2023-04-25T04:40:12;3.63;;;2.35;;
79143;SDS011;68551;47.484;19.092;2023-04-25T04:43:23;2.63;;;2.40;;
79143;SDS011;68551;47.484;19.092;2023-04-25T04:46:52;2.80;;;2.25;;
79143;SDS011;68551;47.484;19.092;2023-04-25T04:50:01;2.92;;;2.42;;
79143;SDS011;68551;47.484;19.092;2023-04-25T04:53:32;2.90;;;2.10;;
79143;SDS011;68551;47.484;19.092;2023-04-25T04:56:51;2.67;;;2.42;;
79143;SDS011;68551;47.484;19.092;2023-04-25T05:00:10;3.08;;;2.45;;
79143;SDS011;68551;47.484;19.092;2023-04-25T05:03:33;4.35;;;2.55;;
79143;SDS011;68551;47.484;19.092;2023-04-25T05:06:49;4.55;;;2.70;;
79143;SDS011;68551;47.484;19.092;2023-04-25T05:10:20;2.83;;;2.22;;
79143;SDS011;68551;47.484;19.092;2023-04-25T05:13:39;3.00;;;2.17;;
79143;SDS011;68551;47.484;19.092;2023-04-25T05:17:12;3.33;;;2.55;;
79143;SDS011;68551;47.484;19.092;2023-04-25T05:20:40;3.70;;;3.13;;
79143;SDS011;68551;47.484;19.092;2023-04-25T05:23:48;2.30;;;1.90;;
79143;SDS011;68551;47.484;19.092;2023-04-25T05:26:57;2.60;;;2.33;;
79143;SDS011;68551;47.484;19.092;2023-04-25T05:30:34;3.80;;;3.00;;
79143;SDS011;68551;47.484;19.092;2023-04-25T05:34:00;3.00;;;2.40;;
79143;SDS011;68551;47.484;19.092;2023-04-25T05:37:25;2.92;;;2.22;;
79143;SDS011;68551;47.484;19.092;2023-04-25T05:43:46;2.97;;;2.03;;
79143;SDS011;68551;47.484;19.092;2023-04-25T05:46:58;3.42;;;2.10;;
79143;SDS011;68551;47.484;19.092;2023-04-25T05:50:33;2.17;;;1.95;;
79143;SDS011;68551;47.484;19.092;2023-04-25T05:53:44;3.40;;;2.30;;
79143;SDS011;68551;47.484;19.092;2023-04-25T05:56:51;3.10;;;2.22;;
79143;SDS011;68551;47.484;19.092;2023-04-25T05:59:56;3.17;;;2.75;;
79143;SDS011;68551;47.484;19.092;2023-04-25T06:03:14;2.88;;;2.08;;
79143;SDS011;68551;47.484;19.092;2023-04-25T06:06:24;4.15;;;2.92;;
79143;SDS011;68551;47.484;19.092;2023-04-25T06:09:33;4.55;;;2.30;;
79143;SDS011;68551;47.484;19.092;2023-04-25T06:12:38;2.97;;;2.60;;
79143;SDS011;68551;47.484;19.092;2023-04-25T06:15:43;4.20;;;2.58;;
79143;SDS011;68551;47.484;19.092;2023-04-25T06:18:46;3.38;;;2.55;;
79143;SDS011;68551;47.484;19.092;2023-04-25T06:21:51;5.53;;;2.42;;
79143;SDS011;68551;47.484;19.092;2023-04-25T06:24:55;4.18;;;2.70;;
79143;SDS011;68551;47.484;19.092;2023-04-25T06:28:00;3.20;;;2.42;;
79143;SDS011;68551;47.484;19.092;2023-04-25T06:31:12;4.20;;;2.80;;
79143;SDS011;68551;47.484;19.092;2023-04-25T06:34:18;5.47;;;3.25;;
79143;SDS011;68551;47.484;19.092;2023-04-25T06:37:20;3.60;;;3.00;;
79143;SDS011;68551;47.484;19.092;2023-04-25T06:40:22;4.78;;;2.88;;
79143;SDS011;68551;47.484;19.092;2023-04-25T06:43:27;4.82;;;2.90;;
79143;SDS011;68551;47.484;19.092;2023-04-25T06:46:46;4.15;;;3.40;;
79143;SDS011;68551;47.484;19.092;2023-04-25T06:49:50;3.95;;;3.05;;
79143;SDS011;68551;47.484;19.092;2023-04-25T06:52:54;3.53;;;2.58;;
79143;SDS011;68551;47.484;19.092;2023-04-25T06:56:00;4.15;;;3.20;;
79143;SDS011;68551;47.484;19.092;2023-04-25T07:02:29;3.40;;;3.10;;
79143;SDS011;68551;47.484;19.092;2023-04-25T07:05:33;4.00;;;3.35;;
79143;SDS011;68551;47.484;19.092;2023-04-25T07:08:38;3.70;;;2.92;;
79143;SDS011;68551;47.484;19.092;2023-04-25T07:11:40;4.20;;;3.47;;
79143;SDS011;68551;47.484;19.092;2023-04-25T07:14:45;4.53;;;3.50;;
79143;SDS011;68551;47.484;19.092;2023-04-25T07:17:47;3.35;;;3.00;;
79143;SDS011;68551;47.484;19.092;2023-04-25T07:20:50;4.10;;;3.47;;
79143;SDS011;68551;47.484;19.092;2023-04-25T07:23:53;4.88;;;3.15;;
79143;SDS011;68551;47.484;19.092;2023-04-25T07:27:00;4.40;;;3.63;;
79143;SDS011;68551;47.484;19.092;2023-04-25T07:30:38;4.15;;;3.55;;
79143;SDS011;68551;47.484;19.092;2023-04-25T07:33:40;4.80;;;2.83;;
79143;SDS011;68551;47.484;19.092;2023-04-25T07:36:43;6.20;;;3.47;;
79143;SDS011;68551;47.484;19.092;2023-04-25T07:39:45;3.70;;;3.08;;
79143;SDS011;68551;47.484;19.092;2023-04-25T07:42:55;3.78;;;2.80;;
79143;SDS011;68551;47.484;19.092;2023-04-25T07:46:13;4.57;;;3.63;;
79143;SDS011;68551;47.484;19.092;2023-04-25T07:49:20;4.85;;;3.50;;
79143;SDS011;68551;47.484;19.092;2023-04-25T07:52:23;3.53;;;3.13;;
79143;SDS011;68551;47.484;19.092;2023-04-25T07:55:34;4.10;;;3.10;;
79143;SDS011;68551;47.484;19.092;2023-04-25T07:58:52;3.63;;;2.83;;
79143;SDS011;68551;47.484;19.092;2023-04-25T08:01:58;3.33;;;2.83;;
79143;SDS011;68551;47.484;19.092;2023-04-25T08:05:12;4.88;;;2.90;;
79143;SDS011;68551;47.484;19.092;2023-04-25T08:08:23;5.35;;;3.30;;
79143;SDS011;68551;47.484;19.092;2023-04-25T08:11:33;2.80;;;2.22;;
79143;SDS011;68551;47.484;19.092;2023-04-25T08:14:40;4.10;;;3.53;;
79143;SDS011;68551;47.484;19.092;2023-04-25T08:17:45;3.53;;;2.53;;
79143;SDS011;68551;47.484;19.092;2023-04-25T08:20:50;3.30;;;2.85;;
79143;SDS011;68551;47.484;19.092;2023-04-25T08:23:52;3.28;;;2.88;;
79143;SDS011;68551;47.484;19.092;2023-04-25T08:27:04;3.15;;;2.70;;
79143;SDS011;68551;47.484;19.092;2023-04-25T08:30:09;3.55;;;2.90;;
79143;SDS011;68551;47.484;19.092;2023-04-25T08:33:13;2.92;;;2.53;;
79143;SDS011;68551;47.484;19.092;2023-04-25T08:36:24;4.20;;;2.67;;
79143;SDS011;68551;47.484;19.092;2023-04-25T08:39:49;3.55;;;2.50;;
79143;SDS011;68551;47.484;19.092;2023-04-25T08:42:54;3.55;;;2.85;;
79143;SDS011;68551;47.484;19.092;2023-04-25T08:46:00;4.15;;;2.53;;
79143;SDS011;68551;47.484;19.092;2023-04-25T08:49:25;4.13;;;2.53;;
79143;SDS011;68551;47.484;19.092;2023-04-25T08:52:30;2.95;;;2.20;;
79143;SDS011;68551;47.484;19.092;2023-04-25T08:55:37;3.50;;;2.53;;
79143;SDS011;68551;47.484;19.092;2023-04-25T08:58:44;3.35;;;2.50;;
79143;SDS011;68551;47.484;19.092;2023-04-25T09:01:55;2.95;;;2.47;;
79143;SDS011;68551;47.484;19.092;2023-04-25T09:05:02;5.28;;;2.35;;
79143;SDS011;68551;47.484;19.092;2023-04-25T09:08:11;3.58;;;2.80;;
79143;SDS011;68551;47.484;19.092;2023-04-25T09:11:16;3.40;;;2.42;;
79143;SDS011;68551;47.484;19.092;2023-04-25T09:14:23;3.60;;;2.72;;
79143;SDS011;68551;47.484;19.092;2023-04-25T09:17:54;4.47;;;2.67;;
79143;SDS011;68551;47.484;19.092;2023-04-25T09:21:09;3.33;;;2.60;;
79143;SDS011;68551;47.484;19.092;2023-04-25T09:24:40;5.45;;;2.58;;
79143;SDS011;68551;47.484;19.092;2023-04-25T09:27:49;2.50;;;2.28;;
79143;SDS011;68551;47.484;19.092;2023-04-25T09:31:00;2.90;;;2.22;;
79143;SDS011;68551;47.484;19.092;2023-04-25T09:34:16;4.07;;;2.78;;
79143;SDS011;68551;47.484;19.092;2023-04-25T09:37:30;5.93;;;2.80;;
79143;SDS011;68551;47.484;19.092;2023-04-25T09:40:54;3.47;;;2.50;;
79143;SDS011;68551;47.484;19.092;2023-04-25T09:44:06;2.30;;;1.92;;
79143;SDS011;68551;47.484;19.092;2023-04-25T09:47:15;3.53;;;2.58;;
79143;SDS011;68551;47.484;19.092;2023-04-25T09:50:20;2.88;;;2.25;;
79143;SDS011;68551;47.484;19.092;2023-04-25T09:53:27;3.30;;;2.53;;
79143;SDS011;68551;47.484;19.092;2023-04-25T09:56:47;2.88;;;2.35;;
79143;SDS011;68551;47.484;19.092;2023-04-25T09:59:52;2.88;;;2.40;;
79143;SDS011;68551;47.484;19.092;2023-04-25T10:03:00;2.65;;;2.10;;
79143;SDS011;68551;47.484;19.092;2023-04-25T10:06:33;3.42;;;1.60;;
79143;SDS011;68551;47.484;19.092;2023-04-25T10:09:37;3.17;;;1.70;;
79143;SDS011;68551;47.484;19.092;2023-04-25T10:12:43;2.97;;;2.20;;
79143;SDS011;68551;47.484;19.092;2023-04-25T10:15:48;2.22;;;1.60;;
79143;SDS011;68551;47.484;19.092;2023-04-25T10:18:57;1.60;;;1.40;;
79143;SDS011;68551;47.484;19.092;2023-04-25T10:22:07;1.92;;;1.55;;
79143;SDS011;68551;47.484;19.092;2023-04-25T10:25:17;1.60;;;1.40;;
79143;SDS011;68551;47.484;19.092;2023-04-25T10:28:23;1.65;;;1.55;;
79143;SDS011;68551;47.484;19.092;2023-04-25T10:31:31;2.17;;;1.50;;
79143;SDS011;68551;47.484;19.092;2023-04-25T10:34:46;1.52;;;1.40;;
79143;SDS011;68551;47.484;19.092;2023-04-25T10:37:57;1.83;;;1.60;;
79143;SDS011;68551;47.484;19.092;2023-04-25T10:41:14;1.52;;;1.42;;
79143;SDS011;68551;47.484;19.092;2023-04-25T10:44:19;1.38;;;1.25;;
79143;SDS011;68551;47.484;19.092;2023-04-25T10:47:21;2.42;;;1.60;;
79143;SDS011;68551;47.484;19.092;2023-04-25T10:50:45;1.60;;;1.30;;
79143;SDS011;68551;47.484;19.092;2023-04-25T10:53:56;1.67;;;1.25;;
79143;SDS011;68551;47.484;19.092;2023-04-25T10:57:25;1.23;;;1.10;;
79143;SDS011;68551;47.484;19.092;2023-04-25T11:00:39;1.52;;;1.17;;
79143;SDS011;68551;47.484;19.092;2023-04-25T11:04:00;2.70;;;1.30;;
79143;SDS011;68551;47.484;19.092;2023-04-25T11:10:32;1.55;;;1.17;;
79143;SDS011;68551;47.484;19.092;2023-04-25T11:13:40;1.08;;;1.00;;
79143;SDS011;68551;47.484;19.092;2023-04-25T11:16:42;1.63;;;1.38;;
79143;SDS011;68551;47.484;19.092;2023-04-25T11:19:48;1.40;;;1.30;;
79143;SDS011;68551;47.484;19.092;2023-04-25T11:22:53;1.20;;;1.10;;
79143;SDS011;68551;47.484;19.092;2023-04-25T11:25:59;1.10;;;1.00;;
79143;SDS011;68551;47.484;19.092;2023-04-25T11:29:04;1.15;;;0.73;;
79143;SDS011;68551;47.484;19.092;2023-04-25T11:32:06;0.85;;;0.80;;
79143;SDS011;68551;47.484;19.092;2023-04-25T11:35:09;0.90;;;0.90;;
79143;SDS011;68551;47.484;19.092;2023-04-25T11:38:17;2.25;;;1.40;;
79143;SDS011;68551;47.484;19.092;2023-04-25T11:41:23;0.85;;;0.85;;
79143;SDS011;68551;47.484;19.092;2023-04-25T11:44:27;1.40;;;0.82;;
79143;SDS011;68551;47.484;19.092;2023-04-25T11:47:30;1.05;;;0.82;;
79143;SDS011;68551;47.484;19.092;2023-04-25T11:50:33;0.82;;;0.82;;
79143;SDS011;68551;47.484;19.092;2023-04-25T11:53:35;1.50;;;1.17;;
79143;SDS011;68551;47.484;19.092;2023-04-25T11:56:44;2.83;;;1.08;;
79143;SDS011;68551;47.484;19.092;2023-04-25T11:59:49;2.33;;;1.10;;
79143;SDS011;68551;47.484;19.092;2023-04-25T12:02:57;1.30;;;1.00;;
79143;SDS011;68551;47.484;19.092;2023-04-25T12:06:03;1.20;;;1.10;;
79143;SDS011;68551;47.484;19.092;2023-04-25T12:09:09;0.95;;;0.85;;
79143;SDS011;68551;47.484;19.092;2023-04-25T12:12:17;1.70;;;1.35;;
79143;SDS011;68551;47.484;19.092;2023-04-25T12:15:25;0.93;;;0.93;;
79143;SDS011;68551;47.484;19.092;2023-04-25T12:18:30;1.33;;;1.23;;
79143;SDS011;68551;47.484;19.092;2023-04-25T12:21:35;1.35;;;1.20;;
79143;SDS011;68551;47.484;19.092;2023-04-25T12:25:01;1.13;;;0.95;;
79143;SDS011;68551;47.484;19.092;2023-04-25T12:28:44;1.30;;;1.13;;
79143;SDS011;68551;47.484;19.092;2023-04-25T12:31:41;1.30;;;1.00;;
79143;SDS011;68551;47.484;19.092;2023-04-25T12:34:47;1.13;;;1.00;;
79143;SDS011;68551;47.484;19.092;2023-04-25T12:37:49;1.70;;;1.48;;
79143;SDS011;68551;47.484;19.092;2023-04-25T12:40:54;1.27;;;1.17;;
79143;SDS011;68551;47.484;19.092;2023-04-25T12:43:57;1.23;;;1.13;;
79143;SDS011;68551;47.484;19.092;2023-04-25T12:46:59;1.63;;;1.30;;
79143;SDS011;68551;47.484;19.092;2023-04-25T12:50:05;1.48;;;1.10;;
79143;SDS011;68551;47.484;19.092;2023-04-25T12:53:08;2.35;;;1.45;;
79143;SDS011;68551;47.484;19.092;2023-04-25T12:56:14;1.75;;;1.05;;
79143;SDS011;68551;47.484;19.092;2023-04-25T12:59:18;2.10;;;1.30;;
79143;SDS011;68551;47.484;19.092;2023-04-25T13:02:23;1.30;;;1.20;;
79143;SDS011;68551;47.484;19.092;2023-04-25T13:05:25;2.72;;;1.20;;
79143;SDS011;68551;47.484;19.092;2023-04-25T13:08:30;1.50;;;1.20;;
79143;SDS011;68551;47.484;19.092;2023-04-25T13:11:36;2.05;;;1.30;;
79143;SDS011;68551;47.484;19.092;2023-04-25T13:14:39;1.60;;;1.08;;
79143;SDS011;68551;47.484;19.092;2023-04-25T13:17:44;1.80;;;1.30;;
79143;SDS011;68551;47.484;19.092;2023-04-25T13:20:51;2.17;;;1.50;;
79143;SDS011;68551;47.484;19.092;2023-04-25T13:23:58;1.50;;;1.38;;
79143;SDS011;68551;47.484;19.092;2023-04-25T13:27:03;2.80;;;1.50;;
79143;SDS011;68551;47.484;19.092;2023-04-25T13:30:05;2.05;;;1.70;;
79143;SDS011;68551;47.484;19.092;2023-04-25T13:33:11;1.45;;;1.23;;
79143;SDS011;68551;47.484;19.092;2023-04-25T13:36:14;1.30;;;1.20;;
79143;SDS011;68551;47.484;19.092;2023-04-25T13:39:16;2.45;;;1.50;;
79143;SDS011;68551;47.484;19.092;2023-04-25T13:42:19;2.35;;;1.45;;
79143;SDS011;68551;47.484;19.092;2023-04-25T13:45:21;1.85;;;1.50;;
79143;SDS011;68551;47.484;19.092;2023-04-25T13:48:23;2.08;;;1.60;;
79143;SDS011;68551;47.484;19.092;2023-04-25T13:51:26;2.08;;;1.30;;
79143;SDS011;68551;47.484;19.092;2023-04-25T13:54:36;2.15;;;1.40;;
79143;SDS011;68551;47.484;19.092;2023-04-25T13:57:38;1.85;;;1.52;;
79143;SDS011;68551;47.484;19.092;2023-04-25T14:00:43;2.35;;;1.45;;
79143;SDS011;68551;47.484;19.092;2023-04-25T14:03:48;1.23;;;1.13;;
79143;SDS011;68551;47.484;19.092;2023-04-25T14:06:51;1.35;;;1.15;;
79143;SDS011;68551;47.484;19.092;2023-04-25T14:09:57;2.30;;;1.30;;
79143;SDS011;68551;47.484;19.092;2023-04-25T14:13:00;1.33;;;1.02;;
79143;SDS011;68551;47.484;19.092;2023-04-25T14:16:05;1.60;;;1.25;;
79143;SDS011;68551;47.484;19.092;2023-04-25T14:19:08;1.48;;;1.30;;
79143;SDS011;68551;47.484;19.092;2023-04-25T14:22:10;1.42;;;1.30;;
79143;SDS011;68551;47.484;19.092;2023-04-25T14:25:15;1.80;;;1.30;;
79143;SDS011;68551;47.484;19.092;2023-04-25T14:28:17;2.28;;;1.63;;
79143;SDS011;68551;47.484;19.092;2023-04-25T14:31:20;1.95;;;1.70;;
79143;SDS011;68551;47.484;19.092;2023-04-25T14:34:24;2.20;;;1.58;;
79143;SDS011;68551;47.484;19.092;2023-04-25T14:40:34;2.10;;;1.50;;
79143;SDS011;68551;47.484;19.092;2023-04-25T14:43:40;1.77;;;1.55;;
79143;SDS011;68551;47.484;19.092;2023-04-25T14:46:45;2.05;;;1.70;;
79143;SDS011;68551;47.484;19.092;2023-04-25T14:49:48;3.10;;;2.08;;
79143;SDS011;68551;47.484;19.092;2023-04-25T14:52:56;2.70;;;1.63;;
79143;SDS011;68551;47.484;19.092;2023-04-25T14:56:00;1.52;;;1.35;;
79143;SDS011;68551;47.484;19.092;2023-04-25T14:59:08;1.52;;;1.42;;
79143;SDS011;68551;47.484;19.092;2023-04-25T15:02:10;2.20;;;1.35;;
79143;SDS011;68551;47.484;19.092;2023-04-25T15:05:15;2.72;;;1.40;;
79143;SDS011;68551;47.484;19.092;2023-04-25T15:08:20;1.98;;;1.60;;
79143;SDS011;68551;47.484;19.092;2023-04-25T15:11:22;1.70;;;1.40;;
79143;SDS011;68551;47.484;19.092;2023-04-25T15:14:26;2.08;;;1.70;;
79143;SDS011;68551;47.484;19.092;2023-04-25T15:17:28;2.42;;;1.55;;
79143;SDS011;68551;47.484;19.092;2023-04-25T15:20:32;2.45;;;1.90;;
79143;SDS011;68551;47.484;19.092;2023-04-25T15:23:38;3.45;;;1.67;;
79143;SDS011;68551;47.484;19.092;2023-04-25T15:26:41;1.80;;;1.60;;
79143;SDS011;68551;47.484;19.092;2023-04-25T15:29:45;2.00;;;1.40;;
79143;SDS011;68551;47.484;19.092;2023-04-25T15:32:48;2.17;;;1.30;;
79143;SDS011;68551;47.484;19.092;2023-04-25T15:35:50;1.67;;;1.30;;
79143;SDS011;68551;47.484;19.092;2023-04-25T15:38:55;1.63;;;1.35;;
79143;SDS011;68551;47.484;19.092;2023-04-25T15:41:57;2.35;;;1.40;;
79143;SDS011;68551;47.484;19.092;2023-04-25T15:45:00;2.13;;;1.70;;
79143;SDS011;68551;47.484;19.092;2023-04-25T15:48:07;2.25;;;1.60;;
79143;SDS011;68551;47.484;19.092;2023-04-25T15:51:11;1.83;;;1.48;;
79143;SDS011;68551;47.484;19.092;2023-04-25T15:54:17;2.03;;;1.70;;
79143;SDS011;68551;47.484;19.092;2023-04-25T15:57:21;2.35;;;2.00;;
79143;SDS011;68551;47.484;19.092;2023-04-25T16:00:29;3.70;;;2.30;;
79143;SDS011;68551;47.484;19.092;2023-04-25T16:03:32;2.65;;;2.30;;
79143;SDS011;68551;47.484;19.092;2023-04-25T16:06:39;2.63;;;2.03;;
79143;SDS011;68551;47.484;19.092;2023-04-25T16:09:45;2.22;;;1.95;;
79143;SDS011;68551;47.484;19.092;2023-04-25T16:12:48;3.10;;;2.55;;
79143;SDS011;68551;47.484;19.092;2023-04-25T16:15:51;3.85;;;2.40;;
79143;SDS011;68551;47.484;19.092;2023-04-25T16:18:53;3.35;;;2.60;;
79143;SDS011;68551;47.484;19.092;2023-04-25T16:21:55;2.78;;;2.17;;
79143;SDS011;68551;47.484;19.092;2023-04-25T16:24:58;3.03;;;2.47;;
79143;SDS011;68551;47.484;19.092;2023-04-25T16:28:00;2.88;;;2.40;;
79143;SDS011;68551;47.484;19.092;2023-04-25T16:31:05;2.97;;;2.35;;
79143;SDS011;68551;47.484;19.092;2023-04-25T16:34:07;4.18;;;2.45;;
79143;SDS011;68551;47.484;19.092;2023-04-25T16:37:15;4.72;;;2.20;;
79143;SDS011;68551;47.484;19.092;2023-04-25T16:40:18;2.67;;;2.47;;
79143;SDS011;68551;47.484;19.092;2023-04-25T16:43:22;3.15;;;2.40;;
79143;SDS011;68551;47.484;19.092;2023-04-25T16:46:27;2.53;;;1.92;;
79143;SDS011;68551;47.484;19.092;2023-04-25T16:49:30;3.15;;;2.60;;
79143;SDS011;68551;47.484;19.092;2023-04-25T16:52:34;4.43;;;2.50;;
79143;SDS011;68551;47.484;19.092;2023-04-25T16:55:36;3.30;;;3.00;;
79143;SDS011;68551;47.484;19.092;2023-04-25T16:58:38;3.65;;;2.60;;
79143;SDS011;68551;47.484;19.092;2023-04-25T17:01:41;4.05;;;2.50;;
79143;SDS011;68551;47.484;19.092;2023-04-25T17:04:46;3.83;;;2.50;;
79143;SDS011;68551;47.484;19.092;2023-04-25T17:07:51;3.40;;;2.40;;
79143;SDS011;68551;47.484;19.092;2023-04-25T17:10:55;3.67;;;2.72;;
79143;SDS011;68551;47.484;19.092;2023-04-25T17:14:00;4.97;;;2.72;;
79143;SDS011;68551;47.484;19.092;2023-04-25T17:17:05;3.80;;;2.55;;
79143;SDS011;68551;47.484;19.092;2023-04-25T17:20:09;4.10;;;2.55;;
79143;SDS011;68551;47.484;19.092;2023-04-25T17:23:12;4.13;;;2.88;;
79143;SDS011;68551;47.484;19.092;2023-04-25T17:26:17;4.72;;;2.33;;
79143;SDS011;68551;47.484;19.092;2023-04-25T17:29:19;4.03;;;3.42;;
79143;SDS011;68551;47.484;19.092;2023-04-25T17:32:24;4.57;;;2.55;;
79143;SDS011;68551;47.484;19.092;2023-04-25T17:35:27;3.15;;;2.33;;
79143;SDS011;68551;47.484;19.092;2023-04-25T17:38:30;3.85;;;3.20;;
79143;SDS011;68551;47.484;19.092;2023-04-25T17:41:35;4.55;;;2.53;;
79143;SDS011;68551;47.484;19.092;2023-04-25T17:44:41;4.05;;;2.85;;
79143;SDS011;68551;47.484;19.092;2023-04-25T17:47:43;3.25;;;2.25;;
79143;SDS011;68551;47.484;19.092;2023-04-25T17:50:50;3.50;;;2.60;;
79143;SDS011;68551;47.484;19.092;2023-04-25T17:53:52;4.80;;;2.80;;
79143;SDS011;68551;47.484;19.092;2023-04-25T17:56:57;3.17;;;2.42;;
79143;SDS011;68551;47.484;19.092;2023-04-25T18:00:02;4.47;;;3.08;;
79143;SDS011;68551;47.484;19.092;2023-04-25T18:03:12;3.33;;;2.83;;
79143;SDS011;68551;47.484;19.092;2023-04-25T18:06:17;3.15;;;2.42;;
79143;SDS011;68551;47.484;19.092;2023-04-25T18:09:24;3.28;;;2.58;;
79143;SDS011;68551;47.484;19.092;2023-04-25T18:12:27;4.10;;;2.80;;
79143;SDS011;68551;47.484;19.092;2023-04-25T18:15:30;4.40;;;3.03;;
79143;SDS011;68551;47.484;19.092;2023-04-25T18:18:33;3.70;;;2.75;;
79143;SDS011;68551;47.484;19.092;2023-04-25T18:21:37;3.97;;;3.28;;
79143;SDS011;68551;47.484;19.092;2023-04-25T18:24:44;3.55;;;2.60;;
79143;SDS011;68551;47.484;19.092;2023-04-25T18:27:52;4.30;;;2.80;;
79143;SDS011;68551;47.484;19.092;2023-04-25T18:30:54;3.88;;;2.88;;
79143;SDS011;68551;47.484;19.092;2023-04-25T18:33:57;5.25;;;2.60;;
79143;SDS011;68551;47.484;19.092;2023-04-25T18:37:00;3.60;;;3.00;;
79143;SDS011;68551;47.484;19.092;2023-04-25T18:40:02;4.63;;;2.92;;
79143;SDS011;68551;47.484;19.092;2023-04-25T18:43:09;3.90;;;2.78;;